EZS27FR LSGG-LFRS
Flight info
| Callsign | EZS27FR |
|---|---|
| Flight time | 1h 6m |
| Altitude | 27000 |
| Route | DEPUL T544 LSE DCT RUSIT/N0392F280 DCT MEBAK DCT BELEP DCT TIS DCT LMG/N0365F240 DCT MANAK MANAK1C |
| Aircraft | A320/M-SDE2E3FGHIJ1RWXYZ/LB1 |
Departure
| Time | 2026-05-04 17:20 |
|---|---|
| Airport | Geneva International Airport (LSGG) |
Arrival
| Time | 2026-05-04 18:27 |
|---|---|
| Airport | Nantes Atlantique Airport (LFRS) |
| Time | Latitude | Longitude | Altitude | Speed | Heading |
|---|---|---|---|---|---|
| 2026-05-04 16:15 | 46.23502 | 6.10916 | 1393 ft | 0 kts | 136° |
| 2026-05-04 17:15 | 46.23477 | 6.10951 | 1397 ft | 9 kts | 136° |
| 2026-05-04 17:16 | 46.23502 | 6.11060 | 1402 ft | 7 kts | 45° |
| 2026-05-04 17:16 | 46.23643 | 6.11106 | 1392 ft | 10 kts | 316° |
| 2026-05-04 17:17 | 46.23710 | 6.11090 | 1384 ft | 15 kts | 36° |
| 2026-05-04 17:17 | 46.24044 | 6.11578 | 1370 ft | 27 kts | 45° |
| 2026-05-04 17:18 | 46.24184 | 6.11783 | 1363 ft | 28 kts | 45° |
| 2026-05-04 17:18 | 46.24450 | 6.12174 | 1369 ft | 25 kts | 45° |
| 2026-05-04 17:19 | 46.24708 | 6.12553 | 1362 ft | 27 kts | 45° |
| 2026-05-04 17:19 | 46.24943 | 6.12732 | 1368 ft | 17 kts | 17° |
| 2026-05-04 17:20 | 46.24928 | 6.12545 | 1372 ft | 45 kts | 225° |
| 2026-05-04 17:20 | 46.23839 | 6.10943 | 1398 ft | 166 kts | 226° |
| 2026-05-04 17:20 | 46.23046 | 6.09745 | 2065 ft | 163 kts | 226° |
| 2026-05-04 17:21 | 46.21466 | 6.07412 | 3560 ft | 161 kts | 225° |
| 2026-05-04 17:21 | 46.19886 | 6.05114 | 4724 ft | 170 kts | 223° |
| 2026-05-04 17:22 | 46.18994 | 6.03818 | 5016 ft | 193 kts | 224° |
| 2026-05-04 17:22 | 46.17987 | 6.02350 | 5279 ft | 219 kts | 223° |
| 2026-05-04 17:23 | 46.14344 | 5.96992 | 7092 ft | 267 kts | 226° |
| 2026-05-04 17:23 | 46.13237 | 5.94817 | 8012 ft | 271 kts | 235° |
| 2026-05-04 17:23 | 46.11186 | 5.90279 | 9992 ft | 272 kts | 236° |
| 2026-05-04 17:24 | 46.10115 | 5.87933 | 10494 ft | 292 kts | 236° |
| 2026-05-04 17:24 | 46.06571 | 5.80249 | 12566 ft | 314 kts | 236° |
| 2026-05-04 17:25 | 46.05349 | 5.77616 | 13368 ft | 317 kts | 236° |
| 2026-05-04 17:25 | 46.02874 | 5.72278 | 14825 ft | 324 kts | 235° |
| 2026-05-04 17:26 | 46.00336 | 5.66832 | 16205 ft | 331 kts | 234° |
| 2026-05-04 17:26 | 45.96452 | 5.58484 | 18215 ft | 341 kts | 234° |
| 2026-05-04 17:27 | 45.93884 | 5.52681 | 19418 ft | 347 kts | 236° |
| 2026-05-04 17:27 | 45.91316 | 5.46770 | 20675 ft | 351 kts | 235° |
| 2026-05-04 17:28 | 45.88694 | 5.40802 | 21825 ft | 357 kts | 235° |
| 2026-05-04 17:29 | 45.84644 | 5.31666 | 23558 ft | 366 kts | 234° |
| 2026-05-04 17:29 | 45.80492 | 5.22335 | 25014 ft | 373 kts | 235° |
| 2026-05-04 17:30 | 45.76276 | 5.12880 | 26456 ft | 378 kts | 234° |
| 2026-05-04 17:31 | 45.73468 | 5.06487 | 27419 ft | 382 kts | 237° |
| 2026-05-04 17:31 | 45.69634 | 4.96477 | 28021 ft | 370 kts | 239° |
| 2026-05-04 17:32 | 45.67773 | 4.89756 | 28021 ft | 367 kts | 255° |
| 2026-05-04 17:33 | 45.68544 | 4.78723 | 28015 ft | 380 kts | 277° |
| 2026-05-04 17:33 | 45.69154 | 4.75050 | 28013 ft | 380 kts | 277° |
| 2026-05-04 17:34 | 45.70968 | 4.63998 | 27998 ft | 380 kts | 277° |
| 2026-05-04 17:34 | 45.71572 | 4.60319 | 27998 ft | 380 kts | 277° |
| 2026-05-04 17:35 | 45.73366 | 4.49280 | 27980 ft | 379 kts | 277° |
| 2026-05-04 17:35 | 45.74557 | 4.41909 | 27975 ft | 381 kts | 277° |
| 2026-05-04 17:35 | 45.75155 | 4.38217 | 27963 ft | 381 kts | 277° |
| 2026-05-04 17:36 | 45.75753 | 4.34527 | 27971 ft | 381 kts | 277° |
| 2026-05-04 17:36 | 45.76352 | 4.30827 | 27995 ft | 381 kts | 278° |
| 2026-05-04 17:36 | 45.76949 | 4.27133 | 27993 ft | 381 kts | 278° |
| 2026-05-04 17:36 | 45.77543 | 4.23435 | 27972 ft | 381 kts | 277° |
| 2026-05-04 17:37 | 45.78126 | 4.19781 | 27975 ft | 381 kts | 277° |
| 2026-05-04 17:37 | 45.78714 | 4.16078 | 27967 ft | 381 kts | 277° |
| 2026-05-04 17:37 | 45.79300 | 4.12378 | 27972 ft | 381 kts | 277° |
| 2026-05-04 17:37 | 45.79892 | 4.08675 | 27960 ft | 381 kts | 278° |
| 2026-05-04 17:38 | 45.80486 | 4.04968 | 27951 ft | 382 kts | 277° |
| 2026-05-04 17:38 | 45.81073 | 4.01262 | 27952 ft | 382 kts | 277° |
| 2026-05-04 17:38 | 45.81657 | 3.97556 | 27953 ft | 380 kts | 277° |
| 2026-05-04 17:38 | 45.82239 | 3.93852 | 27951 ft | 380 kts | 277° |
| 2026-05-04 17:39 | 45.83398 | 3.86444 | 27953 ft | 382 kts | 278° |
| 2026-05-04 17:39 | 45.83978 | 3.82718 | 27933 ft | 383 kts | 278° |
| 2026-05-04 17:39 | 45.84557 | 3.78995 | 27934 ft | 383 kts | 278° |
| 2026-05-04 17:40 | 45.85135 | 3.75265 | 27938 ft | 383 kts | 278° |
| 2026-05-04 17:40 | 45.85713 | 3.71533 | 27934 ft | 383 kts | 277° |
| 2026-05-04 17:40 | 45.86279 | 3.67807 | 27940 ft | 383 kts | 277° |
| 2026-05-04 17:40 | 45.86853 | 3.64069 | 27938 ft | 385 kts | 278° |
| 2026-05-04 17:41 | 45.87441 | 3.60317 | 27938 ft | 386 kts | 278° |
| 2026-05-04 17:41 | 45.87995 | 3.56554 | 27939 ft | 384 kts | 274° |
| 2026-05-04 17:41 | 45.88177 | 3.52768 | 27943 ft | 378 kts | 264° |
| 2026-05-04 17:41 | 45.88119 | 3.49000 | 27935 ft | 377 kts | 264° |
| 2026-05-04 17:42 | 45.88062 | 3.45253 | 27926 ft | 373 kts | 264° |
| 2026-05-04 17:42 | 45.88002 | 3.41524 | 27918 ft | 374 kts | 264° |
| 2026-05-04 17:42 | 45.87936 | 3.37793 | 27916 ft | 374 kts | 264° |
| 2026-05-04 17:42 | 45.87868 | 3.34052 | 27917 ft | 375 kts | 264° |
| 2026-05-04 17:43 | 45.87802 | 3.30309 | 27916 ft | 376 kts | 264° |
| 2026-05-04 17:43 | 45.87737 | 3.26565 | 27919 ft | 377 kts | 264° |
| 2026-05-04 17:43 | 45.87669 | 3.22800 | 27926 ft | 377 kts | 264° |
| 2026-05-04 17:43 | 45.87600 | 3.19047 | 27929 ft | 377 kts | 264° |
| 2026-05-04 17:44 | 45.87529 | 3.15285 | 27932 ft | 377 kts | 264° |
| 2026-05-04 17:44 | 45.87457 | 3.11517 | 27943 ft | 378 kts | 264° |
| 2026-05-04 17:44 | 45.87384 | 3.07750 | 27934 ft | 379 kts | 264° |
| 2026-05-04 17:44 | 45.87309 | 3.03966 | 27928 ft | 379 kts | 264° |
| 2026-05-04 17:45 | 45.87240 | 3.00189 | 27917 ft | 379 kts | 264° |
| 2026-05-04 17:45 | 45.87166 | 2.96404 | 27916 ft | 380 kts | 264° |
| 2026-05-04 17:45 | 45.87090 | 2.92664 | 27914 ft | 380 kts | 264° |
| 2026-05-04 17:45 | 45.87012 | 2.88825 | 27913 ft | 380 kts | 264° |
| 2026-05-04 17:46 | 45.86934 | 2.85029 | 27915 ft | 380 kts | 264° |
| 2026-05-04 17:46 | 45.86856 | 2.81240 | 27894 ft | 380 kts | 264° |
| 2026-05-04 17:46 | 45.86778 | 2.77519 | 27884 ft | 377 kts | 264° |
| 2026-05-04 17:46 | 45.86698 | 2.73704 | 27896 ft | 378 kts | 263° |
| 2026-05-04 17:47 | 45.86607 | 2.69918 | 27899 ft | 382 kts | 264° |
| 2026-05-04 17:47 | 45.86513 | 2.66153 | 27893 ft | 383 kts | 264° |
| 2026-05-04 17:47 | 45.86418 | 2.62331 | 27898 ft | 384 kts | 264° |
| 2026-05-04 17:47 | 45.86325 | 2.58521 | 27898 ft | 382 kts | 264° |
| 2026-05-04 17:48 | 45.86239 | 2.54701 | 27907 ft | 382 kts | 265° |
| 2026-05-04 17:48 | 45.86157 | 2.50899 | 27913 ft | 381 kts | 263° |
| 2026-05-04 17:48 | 45.86065 | 2.47090 | 27900 ft | 383 kts | 264° |
| 2026-05-04 17:48 | 45.85966 | 2.43269 | 27899 ft | 383 kts | 264° |
| 2026-05-04 17:49 | 45.85872 | 2.39472 | 27916 ft | 380 kts | 263° |
| 2026-05-04 17:49 | 45.85773 | 2.35680 | 27934 ft | 379 kts | 263° |
| 2026-05-04 17:49 | 45.85677 | 2.31888 | 27916 ft | 381 kts | 263° |
| 2026-05-04 17:49 | 45.85584 | 2.28081 | 27911 ft | 382 kts | 264° |
| 2026-05-04 17:50 | 45.85486 | 2.24275 | 27905 ft | 383 kts | 264° |
| 2026-05-04 17:50 | 45.85387 | 2.20455 | 27904 ft | 383 kts | 263° |
| 2026-05-04 17:50 | 45.85287 | 2.16643 | 27907 ft | 383 kts | 263° |
| 2026-05-04 17:50 | 45.85183 | 2.12825 | 27907 ft | 383 kts | 263° |
| 2026-05-04 17:51 | 45.85077 | 2.09003 | 27907 ft | 384 kts | 263° |
| 2026-05-04 17:51 | 45.84968 | 2.05178 | 27906 ft | 385 kts | 263° |
| 2026-05-04 17:51 | 45.84857 | 2.01349 | 27908 ft | 385 kts | 263° |
| 2026-05-04 17:51 | 45.84741 | 1.97505 | 27899 ft | 386 kts | 263° |
| 2026-05-04 17:52 | 45.84624 | 1.93666 | 27920 ft | 386 kts | 263° |
| 2026-05-04 17:52 | 45.84512 | 1.89827 | 27917 ft | 387 kts | 263° |
| 2026-05-04 17:52 | 45.84407 | 1.85966 | 27917 ft | 388 kts | 263° |
| 2026-05-04 17:52 | 45.84297 | 1.82102 | 27922 ft | 387 kts | 263° |
| 2026-05-04 17:53 | 45.84183 | 1.78245 | 27920 ft | 387 kts | 263° |
| 2026-05-04 17:53 | 45.84063 | 1.74391 | 27924 ft | 386 kts | 263° |
| 2026-05-04 17:53 | 45.83941 | 1.70547 | 27928 ft | 386 kts | 263° |
| 2026-05-04 17:53 | 45.83814 | 1.66699 | 27929 ft | 386 kts | 263° |
| 2026-05-04 17:54 | 45.83685 | 1.62855 | 27927 ft | 386 kts | 263° |
| 2026-05-04 17:54 | 45.83556 | 1.59010 | 27926 ft | 386 kts | 263° |
| 2026-05-04 17:54 | 45.83473 | 1.56465 | 27949 ft | 386 kts | 262° |
| 2026-05-04 17:54 | 45.83349 | 1.52618 | 27942 ft | 386 kts | 262° |
| 2026-05-04 17:55 | 45.83223 | 1.48772 | 27933 ft | 386 kts | 262° |
| 2026-05-04 17:55 | 45.83098 | 1.44922 | 27934 ft | 386 kts | 262° |
| 2026-05-04 17:55 | 45.82972 | 1.41079 | 27927 ft | 386 kts | 262° |
| 2026-05-04 17:55 | 45.82843 | 1.37234 | 27931 ft | 387 kts | 262° |
| 2026-05-04 17:56 | 45.82710 | 1.33382 | 27936 ft | 386 kts | 262° |
| 2026-05-04 17:56 | 45.82574 | 1.29546 | 27926 ft | 386 kts | 262° |
| 2026-05-04 17:56 | 45.82439 | 1.25701 | 27920 ft | 386 kts | 262° |
| 2026-05-04 17:56 | 45.82308 | 1.21857 | 27925 ft | 386 kts | 262° |
| 2026-05-04 17:57 | 45.82177 | 1.18023 | 27918 ft | 386 kts | 262° |
| 2026-05-04 17:57 | 45.82041 | 1.14183 | 27937 ft | 385 kts | 261° |
| 2026-05-04 17:57 | 45.81898 | 1.10350 | 27927 ft | 385 kts | 261° |
| 2026-05-04 17:57 | 45.81751 | 1.06513 | 27927 ft | 386 kts | 261° |
| 2026-05-04 17:58 | 45.81826 | 1.02640 | 27925 ft | 392 kts | 271° |
| 2026-05-04 17:58 | 45.82393 | 0.98793 | 27918 ft | 399 kts | 281° |
| 2026-05-04 17:58 | 45.83212 | 0.94992 | 27919 ft | 399 kts | 281° |
| 2026-05-04 17:58 | 45.84026 | 0.91187 | 27934 ft | 399 kts | 281° |
| 2026-05-04 17:59 | 45.84825 | 0.87428 | 27935 ft | 399 kts | 281° |
| 2026-05-04 17:59 | 45.85627 | 0.83614 | 27931 ft | 399 kts | 281° |
| 2026-05-04 17:59 | 45.87220 | 0.75982 | 27955 ft | 400 kts | 280° |
| 2026-05-04 18:00 | 45.88015 | 0.72156 | 27945 ft | 400 kts | 280° |
| 2026-05-04 18:00 | 45.88811 | 0.68329 | 27940 ft | 401 kts | 280° |
| 2026-05-04 18:00 | 45.89607 | 0.64490 | 27938 ft | 401 kts | 280° |
| 2026-05-04 18:00 | 45.90405 | 0.60656 | 27941 ft | 401 kts | 280° |
| 2026-05-04 18:01 | 45.91206 | 0.56817 | 27939 ft | 401 kts | 280° |
| 2026-05-04 18:01 | 45.92003 | 0.52989 | 27933 ft | 401 kts | 280° |
| 2026-05-04 18:01 | 45.92797 | 0.49153 | 27933 ft | 401 kts | 280° |
| 2026-05-04 18:02 | 45.94378 | 0.41475 | 27932 ft | 401 kts | 280° |
| 2026-05-04 18:02 | 45.95168 | 0.37632 | 27963 ft | 401 kts | 279° |
| 2026-05-04 18:02 | 45.95958 | 0.33788 | 27956 ft | 402 kts | 279° |
| 2026-05-04 18:02 | 45.96747 | 0.29935 | 27946 ft | 402 kts | 279° |
| 2026-05-04 18:03 | 45.97537 | 0.26072 | 27941 ft | 403 kts | 279° |
| 2026-05-04 18:03 | 45.98325 | 0.22204 | 27942 ft | 403 kts | 279° |
| 2026-05-04 18:03 | 45.99109 | 0.18336 | 27939 ft | 403 kts | 279° |
| 2026-05-04 18:03 | 45.99895 | 0.14467 | 27938 ft | 403 kts | 279° |
| 2026-05-04 18:04 | 46.00681 | 0.10592 | 27947 ft | 404 kts | 279° |
| 2026-05-04 18:04 | 46.01468 | 0.06715 | 27943 ft | 404 kts | 279° |
| 2026-05-04 18:04 | 46.03042 | -0.01042 | 27974 ft | 403 kts | 279° |
| 2026-05-04 18:05 | 46.03821 | -0.04913 | 27963 ft | 403 kts | 279° |
| 2026-05-04 18:05 | 46.04596 | -0.08795 | 27957 ft | 404 kts | 279° |
| 2026-05-04 18:05 | 46.05372 | -0.12683 | 27951 ft | 405 kts | 279° |
| 2026-05-04 18:05 | 46.06147 | -0.16571 | 27950 ft | 404 kts | 279° |
| 2026-05-04 18:06 | 46.07687 | -0.24276 | 27508 ft | 395 kts | 279° |
| 2026-05-04 18:06 | 46.08443 | -0.28067 | 27245 ft | 393 kts | 279° |
| 2026-05-04 18:06 | 46.09193 | -0.31836 | 26985 ft | 389 kts | 279° |
| 2026-05-04 18:07 | 46.09935 | -0.35562 | 26593 ft | 385 kts | 279° |
| 2026-05-04 18:07 | 46.10667 | -0.39272 | 26332 ft | 383 kts | 279° |
| 2026-05-04 18:07 | 46.11390 | -0.42941 | 25922 ft | 379 kts | 279° |
| 2026-05-04 18:07 | 46.12106 | -0.46586 | 25464 ft | 377 kts | 279° |
| 2026-05-04 18:08 | 46.12819 | -0.50222 | 24996 ft | 375 kts | 279° |
| 2026-05-04 18:08 | 46.13528 | -0.53834 | 24523 ft | 374 kts | 279° |
| 2026-05-04 18:08 | 46.14234 | -0.57435 | 24040 ft | 373 kts | 279° |
| 2026-05-04 18:08 | 46.14936 | -0.61030 | 23560 ft | 372 kts | 279° |
| 2026-05-04 18:09 | 46.16325 | -0.68175 | 22543 ft | 367 kts | 279° |
| 2026-05-04 18:09 | 46.17696 | -0.75201 | 21609 ft | 361 kts | 280° |
| 2026-05-04 18:10 | 46.18372 | -0.78678 | 21161 ft | 359 kts | 280° |
| 2026-05-04 18:10 | 46.19039 | -0.82136 | 20717 ft | 357 kts | 281° |
| 2026-05-04 18:10 | 46.19701 | -0.85577 | 20263 ft | 355 kts | 281° |
| 2026-05-04 18:10 | 46.20362 | -0.89004 | 19822 ft | 353 kts | 282° |
| 2026-05-04 18:11 | 46.21236 | -0.92278 | 19387 ft | 357 kts | 294° |
| 2026-05-04 18:11 | 46.22615 | -0.95262 | 18945 ft | 360 kts | 307° |
| 2026-05-04 18:11 | 46.24463 | -0.97790 | 18503 ft | 363 kts | 319° |
| 2026-05-04 18:11 | 46.26436 | -1.00051 | 18037 ft | 361 kts | 319° |
| 2026-05-04 18:12 | 46.28367 | -1.02272 | 17592 ft | 359 kts | 319° |
| 2026-05-04 18:12 | 46.30307 | -1.04514 | 17168 ft | 355 kts | 319° |
| 2026-05-04 18:12 | 46.32230 | -1.06742 | 16743 ft | 352 kts | 319° |
| 2026-05-04 18:12 | 46.34136 | -1.08962 | 16329 ft | 350 kts | 319° |
| 2026-05-04 18:13 | 46.36024 | -1.11163 | 15922 ft | 348 kts | 319° |
| 2026-05-04 18:13 | 46.37900 | -1.13348 | 15520 ft | 346 kts | 319° |
| 2026-05-04 18:13 | 46.41624 | -1.17683 | 14736 ft | 341 kts | 319° |
| 2026-05-04 18:14 | 46.43477 | -1.19845 | 14345 ft | 341 kts | 319° |
| 2026-05-04 18:14 | 46.45323 | -1.21998 | 13936 ft | 341 kts | 320° |
| 2026-05-04 18:14 | 46.47167 | -1.24152 | 13471 ft | 339 kts | 320° |
| 2026-05-04 18:15 | 46.50822 | -1.28429 | 12512 ft | 336 kts | 320° |
| 2026-05-04 18:15 | 46.54431 | -1.32649 | 11755 ft | 331 kts | 321° |
| 2026-05-04 18:15 | 46.56218 | -1.34743 | 11410 ft | 329 kts | 321° |
| 2026-05-04 18:16 | 46.57998 | -1.36827 | 11247 ft | 328 kts | 321° |
| 2026-05-04 18:16 | 46.59847 | -1.38682 | 11060 ft | 318 kts | 333° |
| 2026-05-04 18:16 | 46.61864 | -1.39830 | 10886 ft | 307 kts | 346° |
| 2026-05-04 18:17 | 46.65916 | -1.41375 | 10540 ft | 298 kts | 347° |
| 2026-05-04 18:17 | 46.67913 | -1.42133 | 10245 ft | 295 kts | 346° |
| 2026-05-04 18:17 | 46.71845 | -1.43644 | 9561 ft | 290 kts | 344° |
| 2026-05-04 18:18 | 46.73633 | -1.44962 | 9201 ft | 289 kts | 324° |
| 2026-05-04 18:18 | 46.75188 | -1.46778 | 8653 ft | 285 kts | 322° |
| 2026-05-04 18:18 | 46.76716 | -1.48607 | 8139 ft | 283 kts | 322° |
| 2026-05-04 18:18 | 46.78224 | -1.50429 | 7787 ft | 280 kts | 321° |
| 2026-05-04 18:19 | 46.81190 | -1.54027 | 7055 ft | 275 kts | 321° |
| 2026-05-04 18:19 | 46.82649 | -1.55802 | 6692 ft | 272 kts | 321° |
| 2026-05-04 18:19 | 46.84098 | -1.57566 | 6354 ft | 269 kts | 322° |
| 2026-05-04 18:20 | 46.85503 | -1.59278 | 6211 ft | 257 kts | 321° |
| 2026-05-04 18:20 | 46.86843 | -1.60911 | 6085 ft | 245 kts | 322° |
| 2026-05-04 18:20 | 46.88126 | -1.62474 | 5910 ft | 236 kts | 322° |
| 2026-05-04 18:20 | 46.89362 | -1.63976 | 5656 ft | 233 kts | 321° |
| 2026-05-04 18:21 | 46.90611 | -1.65495 | 5409 ft | 228 kts | 321° |
| 2026-05-04 18:21 | 46.91826 | -1.66973 | 5119 ft | 226 kts | 321° |
| 2026-05-04 18:21 | 46.93024 | -1.68434 | 4824 ft | 223 kts | 321° |
| 2026-05-04 18:21 | 46.94186 | -1.69857 | 4516 ft | 213 kts | 321° |
| 2026-05-04 18:22 | 46.95298 | -1.71222 | 4201 ft | 205 kts | 321° |
| 2026-05-04 18:22 | 46.96385 | -1.72462 | 3923 ft | 197 kts | 330° |
| 2026-05-04 18:22 | 46.97632 | -1.73165 | 3632 ft | 190 kts | 349° |
| 2026-05-04 18:22 | 46.98918 | -1.73193 | 3409 ft | 184 kts | 8° |
| 2026-05-04 18:23 | 47.00126 | -1.72602 | 3193 ft | 183 kts | 26° |
| 2026-05-04 18:23 | 47.01251 | -1.71748 | 2954 ft | 182 kts | 26° |
| 2026-05-04 18:23 | 47.02373 | -1.70895 | 2694 ft | 182 kts | 26° |
| 2026-05-04 18:23 | 47.03495 | -1.70043 | 2457 ft | 181 kts | 25° |
| 2026-05-04 18:24 | 47.04619 | -1.69197 | 2220 ft | 182 kts | 25° |
| 2026-05-04 18:24 | 47.05728 | -1.68365 | 1977 ft | 175 kts | 25° |
| 2026-05-04 18:24 | 47.06775 | -1.67565 | 1707 ft | 165 kts | 24° |
| 2026-05-04 18:24 | 47.07726 | -1.66836 | 1517 ft | 146 kts | 23° |
| 2026-05-04 18:25 | 47.08605 | -1.66172 | 1333 ft | 139 kts | 23° |
| 2026-05-04 18:25 | 47.09456 | -1.65526 | 1138 ft | 136 kts | 24° |
| 2026-05-04 18:25 | 47.10300 | -1.64885 | 982 ft | 137 kts | 23° |
| 2026-05-04 18:25 | 47.11142 | -1.64246 | 793 ft | 136 kts | 22° |
| 2026-05-04 18:26 | 47.11983 | -1.63608 | 604 ft | 136 kts | 24° |
| 2026-05-04 18:26 | 47.12832 | -1.62965 | 413 ft | 139 kts | 23° |
| 2026-05-04 18:26 | 47.13693 | -1.62310 | 245 ft | 140 kts | 24° |
| 2026-05-04 18:26 | 47.14549 | -1.61659 | 95 ft | 130 kts | 28° |
| 2026-05-04 18:27 | 47.15216 | -1.61149 | 88 ft | 84 kts | 27° |
| 2026-05-04 18:27 | 47.15602 | -1.60855 | 87 ft | 52 kts | 27° |
| 2026-05-04 18:27 | 47.15795 | -1.60708 | 83 ft | 13 kts | 27° |
| 2026-05-04 18:27 | 47.15837 | -1.60607 | 87 ft | 13 kts | 92° |
| 2026-05-04 18:28 | 47.15811 | -1.60526 | 91 ft | 8 kts | 127° |
| 2026-05-04 18:28 | 47.15764 | -1.60465 | 92 ft | 9 kts | 143° |
| 2026-05-04 18:28 | 47.15718 | -1.60415 | 90 ft | 9 kts | 144° |
| 2026-05-04 18:28 | 47.15664 | -1.60350 | 91 ft | 10 kts | 139° |
| 2026-05-04 18:29 | 47.15632 | -1.60287 | 90 ft | 6 kts | 91° |
| 2026-05-04 18:29 | 47.15657 | -1.60244 | 92 ft | 5 kts | 36° |
| 2026-05-04 18:29 | 47.15677 | -1.60223 | 91 ft | 2 kts | 36° |
| 2026-05-04 18:29 | 47.15684 | -1.60215 | 90 ft | 0 kts | 36° |